N47J UHBB-PANC
Flight info
| Callsign | N47J |
|---|---|
| Flight time | 6h 41m |
| Altitude | 41000 |
| Route | SIMLI2Y SIMLI P153 FA A803 OSKON N991 NB A970 BC N222 VALDA/N0450F410 H222 MCG TAGER9 |
| Aircraft | CL60/M-SADE3FGHIJ3J4J7P2RWXY/HB1D1 |
Departure
| Time | 2026-04-24 15:15 |
|---|---|
| Airport | Ignatyevo Airport (UHBB) |
Arrival
| Time | 2026-04-24 21:57 |
|---|---|
| Airport | Ted Stevens Anchorage International Airport (PANC) |
| Time | Latitude | Longitude | Altitude | Speed | Heading |
|---|---|---|---|---|---|
| 2026-04-24 15:11 | 50.42268 | 127.41540 | 611 ft | 0 kts | 79° |
| 2026-04-24 15:11 | 50.42273 | 127.41573 | 612 ft | 12 kts | 77° |
| 2026-04-24 15:11 | 50.42248 | 127.41684 | 613 ft | 9 kts | 178° |
| 2026-04-24 15:12 | 50.42166 | 127.41711 | 616 ft | 17 kts | 167° |
| 2026-04-24 15:12 | 50.41748 | 127.41842 | 627 ft | 40 kts | 167° |
| 2026-04-24 15:12 | 50.41501 | 127.41924 | 634 ft | 25 kts | 170° |
| 2026-04-24 15:13 | 50.41390 | 127.41908 | 636 ft | 14 kts | 168° |
| 2026-04-24 15:13 | 50.41385 | 127.41979 | 638 ft | 2 kts | 338° |
| 2026-04-24 15:13 | 50.41415 | 127.41969 | 637 ft | 4 kts | 348° |
| 2026-04-24 15:14 | 50.41687 | 127.41877 | 629 ft | 83 kts | 348° |
| 2026-04-24 15:14 | 50.42501 | 127.41607 | 609 ft | 151 kts | 349° |
| 2026-04-24 15:15 | 50.43534 | 127.41274 | 1225 ft | 155 kts | 341° |
| 2026-04-24 15:15 | 50.44606 | 127.40873 | 1926 ft | 165 kts | 342° |
| 2026-04-24 15:15 | 50.45806 | 127.40461 | 2436 ft | 192 kts | 341° |
| 2026-04-24 15:15 | 50.47179 | 127.39997 | 3025 ft | 214 kts | 341° |
| 2026-04-24 15:16 | 50.48693 | 127.39487 | 3640 ft | 234 kts | 343° |
| 2026-04-24 15:16 | 50.50335 | 127.39006 | 4447 ft | 247 kts | 352° |
| 2026-04-24 15:16 | 50.52050 | 127.39562 | 5269 ft | 263 kts | 20° |
| 2026-04-24 15:16 | 50.53720 | 127.40731 | 5670 ft | 266 kts | 20° |
| 2026-04-24 15:17 | 50.55399 | 127.41924 | 5756 ft | 266 kts | 19° |
| 2026-04-24 15:17 | 50.57084 | 127.43111 | 5769 ft | 266 kts | 20° |
| 2026-04-24 15:17 | 50.58766 | 127.44292 | 5764 ft | 265 kts | 20° |
| 2026-04-24 15:17 | 50.60471 | 127.45480 | 5772 ft | 269 kts | 19° |
| 2026-04-24 15:18 | 50.62178 | 127.46652 | 5756 ft | 262 kts | 20° |
| 2026-04-24 15:18 | 50.63823 | 127.47762 | 5776 ft | 259 kts | 23° |
| 2026-04-24 15:18 | 50.65504 | 127.48895 | 5770 ft | 264 kts | 23° |
| 2026-04-24 15:18 | 50.67176 | 127.50021 | 5767 ft | 262 kts | 23° |
| 2026-04-24 15:19 | 50.68843 | 127.51140 | 5771 ft | 261 kts | 23° |
| 2026-04-24 15:19 | 50.70541 | 127.52279 | 5769 ft | 263 kts | 25° |
| 2026-04-24 15:19 | 50.72148 | 127.53680 | 5779 ft | 268 kts | 41° |
| 2026-04-24 15:19 | 50.73406 | 127.55815 | 5767 ft | 265 kts | 59° |
| 2026-04-24 15:20 | 50.74247 | 127.58343 | 5771 ft | 266 kts | 72° |
| 2026-04-24 15:20 | 50.74951 | 127.61086 | 5850 ft | 267 kts | 72° |
| 2026-04-24 15:20 | 50.75643 | 127.63779 | 6162 ft | 269 kts | 71° |
| 2026-04-24 15:20 | 50.76351 | 127.66528 | 6537 ft | 270 kts | 72° |
| 2026-04-24 15:21 | 50.77054 | 127.69270 | 6913 ft | 272 kts | 72° |
| 2026-04-24 15:21 | 50.77767 | 127.72053 | 7278 ft | 275 kts | 72° |
| 2026-04-24 15:21 | 50.78483 | 127.74850 | 7654 ft | 277 kts | 72° |
| 2026-04-24 15:21 | 50.79203 | 127.77663 | 8029 ft | 278 kts | 72° |
| 2026-04-24 15:22 | 50.79919 | 127.80465 | 8402 ft | 279 kts | 72° |
| 2026-04-24 15:22 | 50.80653 | 127.83339 | 8785 ft | 280 kts | 72° |
| 2026-04-24 15:22 | 50.81374 | 127.86170 | 9160 ft | 281 kts | 72° |
| 2026-04-24 15:23 | 50.82852 | 127.91984 | 9911 ft | 296 kts | 72° |
| 2026-04-24 15:23 | 50.84475 | 127.98412 | 10770 ft | 337 kts | 71° |
| 2026-04-24 15:23 | 50.85372 | 128.01962 | 11272 ft | 353 kts | 72° |
| 2026-04-24 15:24 | 50.88173 | 128.13049 | 12996 ft | 368 kts | 72° |
| 2026-04-24 15:25 | 50.89754 | 128.19330 | 14032 ft | 373 kts | 72° |
| 2026-04-24 15:25 | 50.91998 | 128.28288 | 15469 ft | 383 kts | 73° |
| 2026-04-24 15:26 | 50.94971 | 128.40198 | 17345 ft | 394 kts | 73° |
| 2026-04-24 15:27 | 50.98007 | 128.52428 | 19219 ft | 402 kts | 75° |
| 2026-04-24 15:27 | 51.01055 | 128.64771 | 21124 ft | 404 kts | 75° |
| 2026-04-24 15:28 | 51.05111 | 128.81300 | 23638 ft | 401 kts | 75° |
| 2026-04-24 15:29 | 51.07109 | 128.89493 | 24892 ft | 398 kts | 76° |
| 2026-04-24 15:30 | 51.10068 | 129.01669 | 26780 ft | 392 kts | 77° |
| 2026-04-24 15:31 | 51.13872 | 129.17418 | 29289 ft | 374 kts | 78° |
| 2026-04-24 15:32 | 51.17442 | 129.32283 | 31759 ft | 346 kts | 79° |
| 2026-04-24 15:33 | 51.20548 | 129.45209 | 34033 ft | 269 kts | 79° |
| 2026-04-24 15:33 | 51.22471 | 129.53905 | 33870 ft | 287 kts | 80° |
| 2026-04-24 15:34 | 51.23793 | 129.60387 | 32472 ft | 346 kts | 82° |
| 2026-04-24 15:35 | 51.26362 | 129.71292 | 32096 ft | 349 kts | 78° |
| 2026-04-24 15:35 | 51.28254 | 129.78990 | 30994 ft | 402 kts | 78° |
| 2026-04-24 15:35 | 51.29258 | 129.83223 | 30735 ft | 417 kts | 77° |
| 2026-04-24 15:36 | 51.30286 | 129.87546 | 30850 ft | 423 kts | 77° |
| 2026-04-24 15:36 | 51.32417 | 129.96416 | 31201 ft | 435 kts | 73° |
| 2026-04-24 15:36 | 51.33979 | 130.00638 | 31378 ft | 451 kts | 58° |
| 2026-04-24 15:37 | 51.36149 | 130.04269 | 31564 ft | 462 kts | 47° |
| 2026-04-24 15:37 | 51.38532 | 130.07770 | 31707 ft | 466 kts | 47° |
| 2026-04-24 15:37 | 51.40905 | 130.11273 | 31865 ft | 469 kts | 47° |
| 2026-04-24 15:37 | 51.43285 | 130.14795 | 32050 ft | 471 kts | 47° |
| 2026-04-24 15:38 | 51.45713 | 130.18393 | 32234 ft | 472 kts | 47° |
| 2026-04-24 15:38 | 51.48116 | 130.21960 | 32409 ft | 473 kts | 47° |
| 2026-04-24 15:38 | 51.50497 | 130.25499 | 32597 ft | 474 kts | 47° |
| 2026-04-24 15:38 | 51.52908 | 130.29089 | 32758 ft | 475 kts | 47° |
| 2026-04-24 15:39 | 51.55351 | 130.32733 | 32935 ft | 475 kts | 46° |
| 2026-04-24 15:39 | 51.57734 | 130.36293 | 33120 ft | 476 kts | 46° |
| 2026-04-24 15:39 | 51.60147 | 130.39905 | 33280 ft | 476 kts | 46° |
| 2026-04-24 15:39 | 51.62558 | 130.43515 | 33457 ft | 476 kts | 46° |
| 2026-04-24 15:40 | 51.64988 | 130.47166 | 33657 ft | 475 kts | 46° |
| 2026-04-24 15:40 | 51.67406 | 130.50804 | 33811 ft | 475 kts | 46° |
| 2026-04-24 15:40 | 51.69814 | 130.54428 | 34011 ft | 474 kts | 46° |
| 2026-04-24 15:40 | 51.72230 | 130.58072 | 34186 ft | 473 kts | 46° |
| 2026-04-24 15:41 | 51.74598 | 130.61646 | 34413 ft | 471 kts | 46° |
| 2026-04-24 15:41 | 51.77013 | 130.65297 | 34610 ft | 470 kts | 47° |
| 2026-04-24 15:41 | 51.79367 | 130.68863 | 34822 ft | 468 kts | 46° |
| 2026-04-24 15:41 | 51.81737 | 130.72459 | 35021 ft | 467 kts | 46° |
| 2026-04-24 15:42 | 51.84090 | 130.76035 | 35220 ft | 465 kts | 46° |
| 2026-04-24 15:42 | 51.86438 | 130.79607 | 35413 ft | 463 kts | 47° |
| 2026-04-24 15:42 | 51.88757 | 130.83142 | 35609 ft | 460 kts | 46° |
| 2026-04-24 15:42 | 51.91087 | 130.86699 | 35820 ft | 458 kts | 46° |
| 2026-04-24 15:43 | 51.93404 | 130.90240 | 36040 ft | 455 kts | 46° |
| 2026-04-24 15:43 | 51.95679 | 130.93724 | 36224 ft | 453 kts | 46° |
| 2026-04-24 15:43 | 51.97972 | 130.97240 | 36421 ft | 450 kts | 46° |
| 2026-04-24 15:43 | 52.00218 | 131.00688 | 36617 ft | 446 kts | 46° |
| 2026-04-24 15:44 | 52.02456 | 131.04131 | 36819 ft | 442 kts | 46° |
| 2026-04-24 15:44 | 52.04644 | 131.07498 | 37019 ft | 437 kts | 46° |
| 2026-04-24 15:44 | 52.06849 | 131.10901 | 37236 ft | 432 kts | 46° |
| 2026-04-24 15:44 | 52.08986 | 131.14200 | 37436 ft | 428 kts | 46° |
| 2026-04-24 15:45 | 52.11147 | 131.17543 | 37561 ft | 426 kts | 46° |
| 2026-04-24 15:45 | 52.13287 | 131.20859 | 37672 ft | 424 kts | 46° |
| 2026-04-24 15:45 | 52.15403 | 131.24141 | 37779 ft | 422 kts | 46° |
| 2026-04-24 15:45 | 52.17497 | 131.27396 | 37883 ft | 420 kts | 46° |
| 2026-04-24 15:46 | 52.21717 | 131.33966 | 38040 ft | 419 kts | 46° |
| 2026-04-24 15:46 | 52.25898 | 131.40535 | 38193 ft | 417 kts | 46° |
| 2026-04-24 15:47 | 52.30013 | 131.47043 | 38351 ft | 415 kts | 46° |
| 2026-04-24 15:47 | 52.34138 | 131.53581 | 38500 ft | 413 kts | 46° |
| 2026-04-24 15:48 | 52.38253 | 131.60121 | 38613 ft | 413 kts | 46° |
| 2026-04-24 15:48 | 52.42363 | 131.66673 | 38721 ft | 413 kts | 46° |
| 2026-04-24 15:49 | 52.46435 | 131.73181 | 38817 ft | 413 kts | 46° |
| 2026-04-24 15:49 | 52.50526 | 131.79736 | 38934 ft | 413 kts | 46° |
| 2026-04-24 15:50 | 52.54629 | 131.86331 | 38952 ft | 416 kts | 46° |
| 2026-04-24 15:50 | 52.58774 | 131.93010 | 38956 ft | 420 kts | 46° |
| 2026-04-24 15:51 | 52.62930 | 131.99733 | 38967 ft | 423 kts | 46° |
| 2026-04-24 15:51 | 52.67152 | 132.06583 | 38959 ft | 427 kts | 46° |
| 2026-04-24 15:52 | 52.71389 | 132.13478 | 38961 ft | 431 kts | 46° |
| 2026-04-24 15:52 | 52.75680 | 132.20479 | 38967 ft | 434 kts | 46° |
| 2026-04-24 15:53 | 52.79949 | 132.27460 | 38957 ft | 438 kts | 46° |
| 2026-04-24 15:53 | 52.84299 | 132.34544 | 38962 ft | 441 kts | 46° |
| 2026-04-24 15:54 | 52.88649 | 132.41649 | 38964 ft | 444 kts | 46° |
| 2026-04-24 15:54 | 52.93058 | 132.48872 | 38961 ft | 447 kts | 46° |
| 2026-04-24 15:55 | 52.97464 | 132.56111 | 38962 ft | 450 kts | 46° |
| 2026-04-24 15:55 | 53.01890 | 132.63406 | 38971 ft | 453 kts | 46° |
| 2026-04-24 15:56 | 53.06380 | 132.70830 | 38977 ft | 455 kts | 47° |
| 2026-04-24 15:56 | 53.10873 | 132.78281 | 38973 ft | 458 kts | 47° |
| 2026-04-24 15:57 | 53.15421 | 132.85625 | 38973 ft | 460 kts | 44° |
| 2026-04-24 15:57 | 53.20215 | 132.92783 | 38972 ft | 462 kts | 44° |
| 2026-04-24 15:58 | 53.24976 | 132.99921 | 38969 ft | 463 kts | 44° |
| 2026-04-24 15:58 | 53.29758 | 133.07115 | 38979 ft | 465 kts | 44° |
| 2026-04-24 15:59 | 53.34548 | 133.14345 | 38968 ft | 466 kts | 44° |
| 2026-04-24 15:59 | 53.39317 | 133.21567 | 38970 ft | 466 kts | 44° |
| 2026-04-24 16:00 | 53.44105 | 133.28842 | 38972 ft | 467 kts | 44° |
| 2026-04-24 16:00 | 53.48896 | 133.36145 | 38972 ft | 468 kts | 44° |
| 2026-04-24 16:01 | 53.53689 | 133.43474 | 38978 ft | 468 kts | 44° |
| 2026-04-24 16:01 | 53.58498 | 133.50853 | 38973 ft | 468 kts | 44° |
| 2026-04-24 16:02 | 53.63269 | 133.58197 | 38985 ft | 467 kts | 44° |
| 2026-04-24 16:02 | 53.68047 | 133.65575 | 38997 ft | 466 kts | 45° |
| 2026-04-24 16:03 | 53.72832 | 133.72989 | 39002 ft | 466 kts | 45° |
| 2026-04-24 16:03 | 53.77577 | 133.80364 | 38997 ft | 466 kts | 45° |
| 2026-04-24 16:04 | 53.82325 | 133.87767 | 39015 ft | 465 kts | 45° |
| 2026-04-24 16:04 | 53.87057 | 133.95169 | 38997 ft | 464 kts | 45° |
| 2026-04-24 16:05 | 53.94147 | 134.06306 | 38988 ft | 462 kts | 45° |
| 2026-04-24 16:06 | 54.01170 | 134.17392 | 39000 ft | 460 kts | 45° |
| 2026-04-24 16:07 | 54.08170 | 134.28494 | 39007 ft | 461 kts | 45° |
| 2026-04-24 16:07 | 54.15188 | 134.39679 | 39008 ft | 462 kts | 45° |
| 2026-04-24 16:08 | 54.22193 | 134.50915 | 39029 ft | 461 kts | 45° |
| 2026-04-24 16:09 | 54.29194 | 134.62213 | 39037 ft | 462 kts | 45° |
| 2026-04-24 16:09 | 54.33863 | 134.69778 | 39044 ft | 462 kts | 45° |
| 2026-04-24 16:11 | 54.45520 | 134.88660 | 39023 ft | 462 kts | 45° |
| 2026-04-24 16:11 | 54.50158 | 134.96213 | 39052 ft | 462 kts | 45° |
| 2026-04-24 16:12 | 54.57154 | 135.07651 | 39064 ft | 462 kts | 45° |
| 2026-04-24 16:13 | 54.64108 | 135.19078 | 39068 ft | 463 kts | 45° |
| 2026-04-24 16:14 | 54.73557 | 135.34152 | 39095 ft | 464 kts | 43° |
| 2026-04-24 16:14 | 54.75978 | 135.37799 | 39261 ft | 459 kts | 42° |
| 2026-04-24 16:14 | 54.80637 | 135.44833 | 40244 ft | 432 kts | 42° |
| 2026-04-24 16:15 | 54.82125 | 135.47087 | 40576 ft | 422 kts | 43° |
| 2026-04-24 16:15 | 54.87156 | 135.54721 | 40866 ft | 415 kts | 43° |
| 2026-04-24 16:16 | 54.91522 | 135.61375 | 40728 ft | 419 kts | 43° |
| 2026-04-24 16:16 | 54.93688 | 135.64684 | 40761 ft | 418 kts | 42° |
| 2026-04-24 16:17 | 55.04540 | 135.81328 | 40857 ft | 416 kts | 43° |
| 2026-04-24 16:18 | 55.13155 | 135.94634 | 40909 ft | 414 kts | 43° |
| 2026-04-24 16:19 | 55.19580 | 136.04607 | 40925 ft | 413 kts | 43° |
| 2026-04-24 16:20 | 55.25983 | 136.14590 | 40922 ft | 413 kts | 43° |
| 2026-04-24 16:20 | 55.32383 | 136.24615 | 40927 ft | 413 kts | 43° |
| 2026-04-24 16:21 | 55.38765 | 136.34657 | 40929 ft | 412 kts | 43° |
| 2026-04-24 16:22 | 55.43018 | 136.41374 | 40945 ft | 411 kts | 43° |
| 2026-04-24 16:22 | 55.49396 | 136.51485 | 40970 ft | 410 kts | 43° |
| 2026-04-24 16:23 | 55.53651 | 136.58256 | 40979 ft | 410 kts | 43° |
| 2026-04-24 16:24 | 55.59978 | 136.68364 | 41011 ft | 409 kts | 43° |
| 2026-04-24 16:24 | 55.64167 | 136.75081 | 41010 ft | 409 kts | 43° |
| 2026-04-24 16:25 | 55.68354 | 136.81813 | 41032 ft | 409 kts | 43° |
| 2026-04-24 16:25 | 55.72541 | 136.88568 | 41066 ft | 408 kts | 43° |
| 2026-04-24 16:26 | 55.78780 | 136.98669 | 41097 ft | 406 kts | 43° |
| 2026-04-24 16:27 | 55.85032 | 137.08838 | 41075 ft | 406 kts | 43° |
| 2026-04-24 16:27 | 55.89193 | 137.15631 | 41069 ft | 406 kts | 43° |
| 2026-04-24 16:28 | 55.93334 | 137.22412 | 41059 ft | 406 kts | 43° |
| 2026-04-24 16:28 | 55.99527 | 137.32593 | 41064 ft | 405 kts | 43° |
| 2026-04-24 16:29 | 56.03647 | 137.39392 | 41076 ft | 405 kts | 43° |
| 2026-04-24 16:30 | 56.11872 | 137.53024 | 41079 ft | 404 kts | 43° |
| 2026-04-24 16:30 | 56.15984 | 137.59798 | 41072 ft | 404 kts | 42° |
| 2026-04-24 16:31 | 56.20119 | 137.66566 | 41060 ft | 404 kts | 43° |
| 2026-04-24 16:31 | 56.24249 | 137.73349 | 41042 ft | 404 kts | 43° |
| 2026-04-24 16:32 | 56.28372 | 137.80142 | 41047 ft | 404 kts | 43° |
| 2026-04-24 16:32 | 56.32488 | 137.86945 | 41057 ft | 403 kts | 43° |
| 2026-04-24 16:33 | 56.36616 | 137.93787 | 41059 ft | 403 kts | 43° |
| 2026-04-24 16:33 | 56.40704 | 138.00584 | 41076 ft | 403 kts | 43° |
| 2026-04-24 16:34 | 56.44886 | 138.07289 | 41083 ft | 402 kts | 40° |
| 2026-04-24 16:34 | 56.49154 | 138.13705 | 41092 ft | 402 kts | 40° |
| 2026-04-24 16:35 | 56.53428 | 138.20158 | 41091 ft | 402 kts | 40° |
| 2026-04-24 16:35 | 56.57699 | 138.26627 | 41074 ft | 403 kts | 40° |
| 2026-04-24 16:36 | 56.61996 | 138.33154 | 41073 ft | 403 kts | 40° |
| 2026-04-24 16:36 | 56.66260 | 138.39655 | 41072 ft | 402 kts | 40° |
| 2026-04-24 16:37 | 56.70528 | 138.46179 | 41086 ft | 402 kts | 40° |
| 2026-04-24 16:37 | 56.74764 | 138.52676 | 41111 ft | 401 kts | 40° |
| 2026-04-24 16:38 | 56.79020 | 138.59242 | 41105 ft | 401 kts | 40° |
| 2026-04-24 16:38 | 56.83260 | 138.65802 | 41099 ft | 401 kts | 40° |
| 2026-04-24 16:39 | 56.87480 | 138.72353 | 41101 ft | 401 kts | 40° |
| 2026-04-24 16:39 | 56.91730 | 138.78972 | 41102 ft | 401 kts | 40° |
| 2026-04-24 16:40 | 56.95935 | 138.85539 | 41107 ft | 401 kts | 40° |
| 2026-04-24 16:40 | 57.00169 | 138.92172 | 41096 ft | 401 kts | 40° |
| 2026-04-24 16:41 | 57.04376 | 138.98784 | 41087 ft | 401 kts | 40° |
| 2026-04-24 16:41 | 57.08598 | 139.05441 | 41084 ft | 401 kts | 40° |
| 2026-04-24 16:42 | 57.12803 | 139.12091 | 41077 ft | 401 kts | 40° |
| 2026-04-24 16:42 | 57.17000 | 139.18749 | 41098 ft | 400 kts | 40° |
| 2026-04-24 16:43 | 57.21215 | 139.25456 | 41114 ft | 400 kts | 40° |
| 2026-04-24 16:43 | 57.25393 | 139.32126 | 41107 ft | 400 kts | 40° |
| 2026-04-24 16:44 | 57.29590 | 139.38846 | 41096 ft | 401 kts | 40° |
| 2026-04-24 16:44 | 57.33767 | 139.45557 | 41080 ft | 401 kts | 40° |
| 2026-04-24 16:45 | 57.37974 | 139.52336 | 41063 ft | 402 kts | 40° |
| 2026-04-24 16:45 | 57.42141 | 139.59073 | 41066 ft | 401 kts | 40° |
| 2026-04-24 16:46 | 57.46341 | 139.65884 | 41084 ft | 401 kts | 40° |
| 2026-04-24 16:46 | 57.50516 | 139.72675 | 41100 ft | 400 kts | 40° |
| 2026-04-24 16:47 | 57.54678 | 139.79468 | 41096 ft | 400 kts | 40° |
| 2026-04-24 16:47 | 57.58835 | 139.86273 | 41074 ft | 401 kts | 40° |
| 2026-04-24 16:48 | 57.63007 | 139.93126 | 41069 ft | 401 kts | 40° |
| 2026-04-24 16:48 | 57.67170 | 139.99985 | 41092 ft | 400 kts | 40° |
| 2026-04-24 16:49 | 57.71305 | 140.06819 | 41091 ft | 400 kts | 40° |
| 2026-04-24 16:49 | 57.75453 | 140.13696 | 41095 ft | 400 kts | 40° |
| 2026-04-24 16:50 | 57.79592 | 140.20583 | 41072 ft | 400 kts | 40° |
| 2026-04-24 16:50 | 57.83744 | 140.27510 | 41046 ft | 400 kts | 40° |
| 2026-04-24 16:51 | 57.87895 | 140.34460 | 41049 ft | 400 kts | 40° |
| 2026-04-24 16:51 | 57.91999 | 140.41353 | 41052 ft | 399 kts | 40° |
| 2026-04-24 16:52 | 57.96108 | 140.48276 | 41072 ft | 398 kts | 40° |
| 2026-04-24 16:52 | 58.00222 | 140.55229 | 41086 ft | 397 kts | 40° |
| 2026-04-24 16:53 | 58.04292 | 140.62132 | 41084 ft | 397 kts | 40° |
| 2026-04-24 16:53 | 58.08379 | 140.69086 | 41096 ft | 396 kts | 41° |
| 2026-04-24 16:54 | 58.12462 | 140.76054 | 41107 ft | 396 kts | 41° |
| 2026-04-24 16:54 | 58.16518 | 140.83000 | 41103 ft | 396 kts | 41° |
| 2026-04-24 16:55 | 58.20573 | 140.89966 | 41099 ft | 396 kts | 40° |
| 2026-04-24 16:55 | 58.24638 | 140.96971 | 41094 ft | 396 kts | 40° |
| 2026-04-24 16:56 | 58.28705 | 141.04002 | 41090 ft | 396 kts | 40° |
| 2026-04-24 16:56 | 58.32742 | 141.11005 | 41089 ft | 397 kts | 41° |
| 2026-04-24 16:57 | 58.36785 | 141.18041 | 41094 ft | 396 kts | 40° |
| 2026-04-24 16:57 | 58.40854 | 141.25145 | 41096 ft | 396 kts | 40° |
| 2026-04-24 16:58 | 58.44871 | 141.32182 | 41096 ft | 396 kts | 40° |
| 2026-04-24 16:58 | 58.48920 | 141.39299 | 41100 ft | 396 kts | 40° |
| 2026-04-24 16:59 | 58.52978 | 141.46452 | 41093 ft | 396 kts | 40° |
| 2026-04-24 17:00 | 58.59016 | 141.57143 | 41085 ft | 397 kts | 40° |
| 2026-04-24 17:00 | 58.65058 | 141.67894 | 41086 ft | 397 kts | 41° |
| 2026-04-24 17:01 | 58.71083 | 141.78667 | 41095 ft | 396 kts | 41° |
| 2026-04-24 17:02 | 58.77118 | 141.89513 | 41089 ft | 397 kts | 41° |
| 2026-04-24 17:02 | 58.81106 | 141.96709 | 41091 ft | 396 kts | 41° |
| 2026-04-24 17:03 | 58.87114 | 142.07597 | 41087 ft | 396 kts | 41° |
| 2026-04-24 17:04 | 58.91115 | 142.14876 | 41092 ft | 396 kts | 41° |
| 2026-04-24 17:04 | 58.97111 | 142.25833 | 41090 ft | 396 kts | 41° |
| 2026-04-24 17:05 | 59.01105 | 142.33159 | 41096 ft | 396 kts | 41° |
| 2026-04-24 17:06 | 59.07122 | 142.44116 | 41092 ft | 396 kts | 41° |
| 2026-04-24 17:06 | 59.13099 | 142.55049 | 41094 ft | 396 kts | 41° |
| 2026-04-24 17:07 | 59.17097 | 142.62392 | 41096 ft | 396 kts | 41° |
| 2026-04-24 17:08 | 59.25071 | 142.77113 | 41092 ft | 398 kts | 42° |
| 2026-04-24 17:08 | 59.29080 | 142.84554 | 41094 ft | 398 kts | 42° |
| 2026-04-24 17:09 | 59.37054 | 142.99428 | 41094 ft | 398 kts | 42° |
| 2026-04-24 17:10 | 59.44604 | 143.15286 | 41088 ft | 399 kts | 47° |
| 2026-04-24 17:12 | 59.58926 | 143.48428 | 41100 ft | 398 kts | 47° |
| 2026-04-24 18:54 | 65.42423 | 165.41455 | 40883 ft | 435 kts | 85° |
| 2026-04-24 18:55 | 65.42943 | 165.63164 | 40874 ft | 435 kts | 85° |
| 2026-04-24 18:56 | 65.43271 | 165.77606 | 40861 ft | 435 kts | 86° |
| 2026-04-24 18:56 | 65.43586 | 165.92093 | 40893 ft | 435 kts | 86° |
| 2026-04-24 18:57 | 65.43887 | 166.06576 | 40911 ft | 434 kts | 86° |
| 2026-04-24 18:57 | 65.44173 | 166.20998 | 40907 ft | 435 kts | 86° |
| 2026-04-24 18:58 | 65.44447 | 166.35452 | 40889 ft | 435 kts | 86° |
| 2026-04-24 18:58 | 65.44704 | 166.49854 | 40871 ft | 435 kts | 86° |
| 2026-04-24 18:59 | 65.44952 | 166.64410 | 40859 ft | 436 kts | 86° |
| 2026-04-24 18:59 | 65.45184 | 166.78871 | 40848 ft | 436 kts | 87° |
| 2026-04-24 19:00 | 65.45402 | 166.93361 | 40890 ft | 435 kts | 87° |
| 2026-04-24 19:00 | 65.45605 | 167.07770 | 40907 ft | 435 kts | 87° |
| 2026-04-24 19:01 | 65.45796 | 167.22302 | 40926 ft | 434 kts | 87° |
| 2026-04-24 19:01 | 65.45972 | 167.36729 | 40956 ft | 434 kts | 87° |
| 2026-04-24 19:02 | 65.46107 | 167.48669 | 40993 ft | 433 kts | 87° |
| 2026-04-24 19:02 | 65.46282 | 167.65559 | 40992 ft | 434 kts | 88° |
| 2026-04-24 19:03 | 65.46418 | 167.80026 | 40982 ft | 434 kts | 88° |
| 2026-04-24 19:03 | 65.46538 | 167.94408 | 41020 ft | 434 kts | 88° |
| 2026-04-24 19:04 | 65.46647 | 168.08933 | 41034 ft | 434 kts | 88° |
| 2026-04-24 19:04 | 65.46741 | 168.23379 | 41039 ft | 434 kts | 88° |
| 2026-04-24 19:05 | 65.46821 | 168.37784 | 41016 ft | 435 kts | 88° |
| 2026-04-24 19:05 | 65.46887 | 168.52304 | 40987 ft | 436 kts | 88° |
| 2026-04-24 19:06 | 65.46943 | 168.66834 | 41025 ft | 435 kts | 89° |
| 2026-04-24 19:06 | 65.47017 | 168.81287 | 41029 ft | 435 kts | 89° |
| 2026-04-24 19:07 | 65.47079 | 168.95796 | 40976 ft | 437 kts | 89° |
| 2026-04-24 19:07 | 65.47121 | 169.07958 | 40958 ft | 437 kts | 89° |
| 2026-04-24 19:08 | 65.47162 | 169.24876 | 40969 ft | 437 kts | 89° |
| 2026-04-24 19:08 | 65.47182 | 169.39500 | 40916 ft | 438 kts | 89° |
| 2026-04-24 19:09 | 65.47188 | 169.54076 | 40870 ft | 439 kts | 89° |
| 2026-04-24 19:09 | 65.47179 | 169.68777 | 40844 ft | 439 kts | 90° |
| 2026-04-24 19:10 | 65.47157 | 169.83353 | 40847 ft | 439 kts | 90° |
| 2026-04-24 19:10 | 65.47121 | 169.97977 | 40908 ft | 437 kts | 90° |
| 2026-04-24 19:11 | 65.47071 | 170.12462 | 40926 ft | 437 kts | 90° |
| 2026-04-24 19:11 | 65.47008 | 170.27023 | 40943 ft | 436 kts | 90° |
| 2026-04-24 19:12 | 65.46929 | 170.41569 | 40977 ft | 436 kts | 90° |
| 2026-04-24 19:12 | 65.46838 | 170.56049 | 40996 ft | 436 kts | 90° |
| 2026-04-24 19:13 | 65.46752 | 170.68085 | 40988 ft | 436 kts | 91° |
| 2026-04-24 19:13 | 65.46613 | 170.85104 | 40995 ft | 436 kts | 91° |
| 2026-04-24 19:14 | 65.46481 | 170.99588 | 40997 ft | 436 kts | 91° |
| 2026-04-24 19:14 | 65.46333 | 171.14092 | 40979 ft | 437 kts | 91° |
| 2026-04-24 19:15 | 65.46172 | 171.28628 | 40963 ft | 437 kts | 91° |
| 2026-04-24 19:15 | 65.45996 | 171.43169 | 41002 ft | 436 kts | 91° |
| 2026-04-24 19:16 | 65.45708 | 171.64940 | 41021 ft | 436 kts | 91° |
| 2026-04-24 19:16 | 65.45499 | 171.79356 | 41022 ft | 436 kts | 92° |
| 2026-04-24 19:17 | 65.45275 | 171.93869 | 41019 ft | 436 kts | 92° |
| 2026-04-24 19:17 | 65.45424 | 172.08340 | 41009 ft | 436 kts | 85° |
| 2026-04-24 19:18 | 65.45921 | 172.22816 | 40998 ft | 437 kts | 85° |
| 2026-04-24 19:18 | 65.46400 | 172.37344 | 40988 ft | 437 kts | 85° |
| 2026-04-24 19:19 | 65.46861 | 172.51848 | 40977 ft | 438 kts | 85° |
| 2026-04-24 19:19 | 65.47308 | 172.66365 | 40992 ft | 437 kts | 86° |
| 2026-04-24 19:20 | 65.47740 | 172.80936 | 40988 ft | 438 kts | 86° |
| 2026-04-24 19:20 | 65.48156 | 172.95462 | 40987 ft | 438 kts | 86° |
| 2026-04-24 19:21 | 65.48555 | 173.09975 | 40973 ft | 438 kts | 86° |
| 2026-04-24 19:21 | 65.48944 | 173.24629 | 40941 ft | 439 kts | 86° |
| 2026-04-24 19:22 | 65.49316 | 173.39204 | 40968 ft | 438 kts | 86° |
| 2026-04-24 19:22 | 65.49671 | 173.53670 | 40984 ft | 437 kts | 86° |
| 2026-04-24 19:23 | 65.50014 | 173.68219 | 40975 ft | 438 kts | 87° |
| 2026-04-24 19:23 | 65.50344 | 173.82819 | 40956 ft | 439 kts | 87° |
| 2026-04-24 19:24 | 65.50661 | 173.97501 | 40936 ft | 439 kts | 87° |
| 2026-04-24 19:24 | 65.50962 | 174.12079 | 40900 ft | 440 kts | 87° |
| 2026-04-24 19:25 | 65.51251 | 174.26787 | 40877 ft | 441 kts | 88° |
| 2026-04-24 19:25 | 65.51524 | 174.41397 | 40849 ft | 441 kts | 87° |
| 2026-04-24 19:26 | 65.51785 | 174.56108 | 40842 ft | 441 kts | 88° |
| 2026-04-24 19:26 | 65.52031 | 174.70781 | 40890 ft | 440 kts | 88° |
| 2026-04-24 19:27 | 65.52263 | 174.85509 | 40905 ft | 440 kts | 88° |
| 2026-04-24 19:27 | 65.52480 | 175.00151 | 40907 ft | 439 kts | 88° |
| 2026-04-24 19:28 | 65.52683 | 175.14812 | 40908 ft | 440 kts | 88° |
| 2026-04-24 19:28 | 65.52869 | 175.29369 | 40911 ft | 440 kts | 88° |
| 2026-04-24 19:29 | 65.53232 | 175.51404 | 40934 ft | 440 kts | 88° |
| 2026-04-24 19:30 | 65.53465 | 175.66086 | 40920 ft | 440 kts | 89° |
| 2026-04-24 19:30 | 65.53683 | 175.80742 | 40917 ft | 441 kts | 89° |
| 2026-04-24 19:31 | 65.53887 | 175.95412 | 40913 ft | 441 kts | 89° |
| 2026-04-24 19:31 | 65.54077 | 176.10130 | 40910 ft | 441 kts | 89° |
| 2026-04-24 19:32 | 65.54253 | 176.24936 | 40892 ft | 442 kts | 89° |
| 2026-04-24 19:32 | 65.54414 | 176.39642 | 40878 ft | 442 kts | 89° |
| 2026-04-24 19:33 | 65.54562 | 176.54422 | 40876 ft | 442 kts | 89° |
| 2026-04-24 19:33 | 65.54694 | 176.69127 | 40857 ft | 443 kts | 90° |
| 2026-04-24 19:34 | 65.54813 | 176.83916 | 40848 ft | 443 kts | 90° |
| 2026-04-24 19:34 | 65.54917 | 176.98712 | 40852 ft | 443 kts | 90° |
| 2026-04-24 19:35 | 65.55006 | 177.13480 | 40885 ft | 442 kts | 90° |
| 2026-04-24 19:35 | 65.55081 | 177.28258 | 40906 ft | 442 kts | 90° |
| 2026-04-24 19:36 | 65.55142 | 177.43062 | 40896 ft | 442 kts | 90° |
| 2026-04-24 19:36 | 65.55188 | 177.57774 | 40880 ft | 443 kts | 90° |
| 2026-04-24 19:37 | 65.55220 | 177.72618 | 40853 ft | 443 kts | 91° |
| 2026-04-24 19:37 | 65.55238 | 177.87346 | 40856 ft | 443 kts | 91° |
| 2026-04-24 19:38 | 65.55241 | 178.02158 | 40860 ft | 443 kts | 91° |
| 2026-04-24 19:38 | 65.55229 | 178.16923 | 40860 ft | 443 kts | 91° |
| 2026-04-24 19:39 | 65.55203 | 178.31726 | 40846 ft | 443 kts | 91° |
| 2026-04-24 19:39 | 65.55164 | 178.46489 | 40846 ft | 443 kts | 91° |
| 2026-04-24 19:40 | 65.55109 | 178.61365 | 40827 ft | 443 kts | 91° |
| 2026-04-24 19:40 | 65.55039 | 178.76160 | 40797 ft | 444 kts | 92° |
| 2026-04-24 19:41 | 65.54956 | 178.90883 | 40824 ft | 443 kts | 91° |
| 2026-04-24 19:41 | 65.54858 | 179.05701 | 40827 ft | 443 kts | 92° |
| 2026-04-24 19:42 | 65.54745 | 179.20552 | 40799 ft | 444 kts | 92° |
| 2026-04-24 19:42 | 65.54618 | 179.35400 | 40813 ft | 443 kts | 92° |
| 2026-04-24 19:43 | 65.54477 | 179.50157 | 40836 ft | 443 kts | 92° |
| 2026-04-24 19:43 | 65.54321 | 179.64957 | 40841 ft | 443 kts | 92° |
| 2026-04-24 19:44 | 65.54152 | 179.79669 | 40851 ft | 443 kts | 93° |
| 2026-04-24 19:44 | 65.53966 | 179.94478 | 40864 ft | 443 kts | 92° |
| 2026-04-24 19:45 | 65.53767 | -179.90714 | 40857 ft | 443 kts | 92° |
| 2026-04-24 19:45 | 65.53554 | -179.75882 | 40846 ft | 444 kts | 93° |
| 2026-04-24 19:46 | 65.53326 | -179.61110 | 40857 ft | 444 kts | 93° |
| 2026-04-24 19:46 | 65.53084 | -179.46324 | 40853 ft | 444 kts | 94° |
| 2026-04-24 19:47 | 65.52642 | -179.31572 | 40867 ft | 443 kts | 101° |
| 2026-04-24 19:47 | 65.50860 | -179.17563 | 40860 ft | 441 kts | 112° |
| 2026-04-24 19:48 | 65.48596 | -179.03830 | 40852 ft | 442 kts | 112° |
| 2026-04-24 19:48 | 65.45211 | -178.83426 | 40854 ft | 442 kts | 112° |
| 2026-04-24 19:49 | 65.40623 | -178.56117 | 40852 ft | 442 kts | 112° |
| 2026-04-24 19:50 | 65.35988 | -178.28912 | 40825 ft | 443 kts | 113° |
| 2026-04-24 19:51 | 65.32488 | -178.08623 | 40817 ft | 443 kts | 113° |
| 2026-04-24 19:52 | 65.28947 | -177.88303 | 40820 ft | 443 kts | 113° |
| 2026-04-24 19:52 | 65.26578 | -177.74823 | 40828 ft | 443 kts | 113° |
| 2026-04-24 19:53 | 65.24180 | -177.61273 | 40820 ft | 443 kts | 114° |
| 2026-04-24 19:54 | 65.20576 | -177.41090 | 40808 ft | 444 kts | 114° |
| 2026-04-24 19:54 | 65.18168 | -177.27710 | 40803 ft | 444 kts | 114° |
| 2026-04-24 19:55 | 65.16136 | -177.16492 | 40809 ft | 444 kts | 114° |
| 2026-04-24 19:55 | 65.13290 | -177.00884 | 40800 ft | 444 kts | 114° |
| 2026-04-24 19:56 | 65.10843 | -176.87564 | 40800 ft | 443 kts | 114° |
| 2026-04-24 19:56 | 65.08377 | -176.74232 | 40785 ft | 443 kts | 115° |
| 2026-04-24 19:57 | 65.05906 | -176.60956 | 40799 ft | 443 kts | 114° |
| 2026-04-24 19:57 | 65.03419 | -176.47681 | 40791 ft | 442 kts | 115° |
| 2026-04-24 19:58 | 65.00939 | -176.34534 | 40792 ft | 442 kts | 115° |
| 2026-04-24 19:58 | 64.98426 | -176.21298 | 40759 ft | 442 kts | 115° |
| 2026-04-24 19:59 | 64.95919 | -176.08177 | 40762 ft | 442 kts | 115° |
| 2026-04-24 19:59 | 64.93385 | -175.95003 | 40747 ft | 443 kts | 115° |
| 2026-04-24 20:00 | 64.90841 | -175.81854 | 40730 ft | 443 kts | 115° |
| 2026-04-24 20:00 | 64.88279 | -175.68704 | 40723 ft | 443 kts | 115° |
| 2026-04-24 20:01 | 64.85820 | -175.56161 | 40736 ft | 443 kts | 115° |
| 2026-04-24 20:01 | 64.83240 | -175.43082 | 40750 ft | 443 kts | 116° |
| 2026-04-24 20:02 | 64.81086 | -175.32222 | 40766 ft | 443 kts | 116° |
| 2026-04-24 20:02 | 64.78065 | -175.17091 | 40766 ft | 443 kts | 116° |
| 2026-04-24 20:03 | 64.75454 | -175.04103 | 40773 ft | 443 kts | 116° |
| 2026-04-24 20:03 | 64.72813 | -174.91042 | 40788 ft | 443 kts | 116° |
| 2026-04-24 20:04 | 64.70188 | -174.78149 | 40796 ft | 443 kts | 116° |
| 2026-04-24 20:04 | 64.67534 | -174.65190 | 40786 ft | 444 kts | 116° |
| 2026-04-24 20:05 | 64.64874 | -174.52281 | 40773 ft | 444 kts | 116° |
| 2026-04-24 20:05 | 64.62193 | -174.39333 | 40776 ft | 444 kts | 116° |
| 2026-04-24 20:06 | 64.59524 | -174.26474 | 40772 ft | 444 kts | 117° |
| 2026-04-24 20:06 | 64.56836 | -174.13606 | 40755 ft | 445 kts | 117° |
| 2026-04-24 20:07 | 64.54590 | -174.02916 | 40725 ft | 446 kts | 117° |
| 2026-04-24 20:07 | 64.51415 | -173.87897 | 40714 ft | 446 kts | 117° |
| 2026-04-24 20:08 | 64.48676 | -173.75018 | 40702 ft | 446 kts | 117° |
| 2026-04-24 20:08 | 64.45933 | -173.62209 | 40722 ft | 446 kts | 117° |
| 2026-04-24 20:09 | 64.43185 | -173.49449 | 40741 ft | 445 kts | 117° |
| 2026-04-24 20:09 | 64.40437 | -173.36754 | 40762 ft | 445 kts | 117° |
| 2026-04-24 20:10 | 64.38316 | -173.23419 | 40774 ft | 447 kts | 104° |
| 2026-04-24 20:10 | 64.37672 | -173.09175 | 40777 ft | 449 kts | 92° |
| 2026-04-24 20:11 | 64.37638 | -172.94806 | 40770 ft | 450 kts | 92° |
| 2026-04-24 20:11 | 64.37586 | -172.80409 | 40767 ft | 451 kts | 92° |
| 2026-04-24 20:12 | 64.37521 | -172.65950 | 40758 ft | 452 kts | 92° |
| 2026-04-24 20:12 | 64.37441 | -172.51537 | 40767 ft | 452 kts | 92° |
| 2026-04-24 20:13 | 64.37347 | -172.37074 | 40769 ft | 452 kts | 92° |
| 2026-04-24 20:13 | 64.37241 | -172.22672 | 40782 ft | 452 kts | 93° |
| 2026-04-24 20:14 | 64.37119 | -172.08195 | 40793 ft | 452 kts | 93° |
| 2026-04-24 20:14 | 64.36984 | -171.93823 | 40797 ft | 452 kts | 93° |
| 2026-04-24 20:15 | 64.36837 | -171.79356 | 40803 ft | 452 kts | 92° |
| 2026-04-24 20:15 | 64.37222 | -171.64925 | 40796 ft | 454 kts | 86° |
| 2026-04-24 20:16 | 64.37788 | -171.50429 | 40802 ft | 454 kts | 86° |
| 2026-04-24 20:16 | 64.38332 | -171.36053 | 40798 ft | 454 kts | 86° |
| 2026-04-24 20:17 | 64.38865 | -171.21555 | 40798 ft | 454 kts | 87° |
| 2026-04-24 20:17 | 64.38979 | -170.99925 | 40812 ft | 451 kts | 97° |
| 2026-04-24 20:18 | 64.38361 | -170.85535 | 40811 ft | 451 kts | 97° |
| 2026-04-24 20:18 | 64.37737 | -170.71257 | 40811 ft | 451 kts | 97° |
| 2026-04-24 20:19 | 64.37094 | -170.56819 | 40811 ft | 452 kts | 97° |
| 2026-04-24 20:19 | 64.36443 | -170.42531 | 40815 ft | 452 kts | 97° |
| 2026-04-24 20:20 | 64.35774 | -170.28152 | 40816 ft | 452 kts | 98° |
| 2026-04-24 20:20 | 64.35093 | -170.13800 | 40813 ft | 452 kts | 98° |
| 2026-04-24 20:21 | 64.34397 | -169.99452 | 40816 ft | 452 kts | 98° |
| 2026-04-24 20:21 | 64.33685 | -169.85068 | 40819 ft | 453 kts | 98° |
| 2026-04-24 20:22 | 64.32962 | -169.70729 | 40816 ft | 453 kts | 98° |
| 2026-04-24 20:22 | 64.32226 | -169.56429 | 40823 ft | 453 kts | 98° |
| 2026-04-24 20:23 | 64.31477 | -169.42154 | 40825 ft | 453 kts | 98° |
| 2026-04-24 20:23 | 64.30705 | -169.27722 | 40826 ft | 453 kts | 99° |
| 2026-04-24 20:24 | 64.29925 | -169.13403 | 40826 ft | 453 kts | 99° |
| 2026-04-24 20:24 | 64.29132 | -168.99118 | 40833 ft | 453 kts | 99° |
| 2026-04-24 20:25 | 64.28323 | -168.84802 | 40839 ft | 453 kts | 99° |
| 2026-04-24 20:25 | 64.27503 | -168.70546 | 40832 ft | 453 kts | 99° |
| 2026-04-24 20:26 | 64.26667 | -168.56256 | 40833 ft | 453 kts | 99° |
| 2026-04-24 20:26 | 64.25817 | -168.41980 | 40830 ft | 453 kts | 99° |
| 2026-04-24 20:27 | 64.24954 | -168.27719 | 40831 ft | 453 kts | 100° |
| 2026-04-24 20:27 | 64.24078 | -168.13487 | 40842 ft | 452 kts | 101° |
| 2026-04-24 20:28 | 64.23189 | -167.99287 | 40848 ft | 452 kts | 101° |
| 2026-04-24 20:28 | 64.22281 | -167.84993 | 40847 ft | 453 kts | 100° |
| 2026-04-24 20:29 | 64.21365 | -167.70824 | 40850 ft | 453 kts | 100° |
| 2026-04-24 20:29 | 64.20430 | -167.56570 | 40850 ft | 453 kts | 100° |
| 2026-04-24 20:30 | 64.19481 | -167.42331 | 40850 ft | 453 kts | 100° |
| 2026-04-24 20:30 | 64.18521 | -167.28139 | 40849 ft | 453 kts | 101° |
| 2026-04-24 20:31 | 64.17546 | -167.13943 | 40850 ft | 453 kts | 101° |
| 2026-04-24 20:31 | 64.16554 | -166.99707 | 40846 ft | 454 kts | 101° |
| 2026-04-24 20:32 | 64.15550 | -166.85512 | 40852 ft | 454 kts | 101° |
| 2026-04-24 20:32 | 64.14529 | -166.71295 | 40855 ft | 454 kts | 101° |
| 2026-04-24 20:33 | 64.13501 | -166.57149 | 40856 ft | 454 kts | 101° |
| 2026-04-24 20:33 | 64.12482 | -166.42932 | 40862 ft | 454 kts | 101° |
| 2026-04-24 20:34 | 64.11455 | -166.28786 | 40860 ft | 454 kts | 102° |
| 2026-04-24 20:34 | 64.10413 | -166.14619 | 40864 ft | 454 kts | 102° |
| 2026-04-24 20:35 | 64.09399 | -166.00435 | 40863 ft | 455 kts | 101° |
| 2026-04-24 20:35 | 64.08390 | -165.86203 | 40866 ft | 455 kts | 101° |
| 2026-04-24 20:36 | 64.07368 | -165.71986 | 40869 ft | 455 kts | 101° |
| 2026-04-24 20:36 | 64.06337 | -165.57858 | 40868 ft | 455 kts | 101° |
| 2026-04-24 20:37 | 64.05291 | -165.43724 | 40880 ft | 455 kts | 101° |
| 2026-04-24 20:37 | 64.04226 | -165.29536 | 40879 ft | 455 kts | 102° |
| 2026-04-24 20:38 | 64.03149 | -165.15387 | 40878 ft | 455 kts | 102° |
| 2026-04-24 20:38 | 64.02061 | -165.01277 | 40884 ft | 455 kts | 102° |
| 2026-04-24 20:39 | 64.00957 | -164.87151 | 40889 ft | 455 kts | 102° |
| 2026-04-24 20:39 | 63.99839 | -164.73039 | 40887 ft | 455 kts | 102° |
| 2026-04-24 20:40 | 63.98705 | -164.58910 | 40886 ft | 456 kts | 102° |
| 2026-04-24 20:40 | 63.97558 | -164.44801 | 40889 ft | 456 kts | 102° |
| 2026-04-24 20:41 | 63.96397 | -164.30705 | 40885 ft | 456 kts | 103° |
| 2026-04-24 20:41 | 63.95216 | -164.16538 | 40886 ft | 456 kts | 103° |
| 2026-04-24 20:42 | 63.94027 | -164.02452 | 40887 ft | 456 kts | 103° |
| 2026-04-24 20:42 | 63.92828 | -163.88434 | 40886 ft | 456 kts | 103° |
| 2026-04-24 20:43 | 63.91607 | -163.74318 | 40893 ft | 456 kts | 103° |
| 2026-04-24 20:43 | 63.90379 | -163.60301 | 40889 ft | 456 kts | 103° |
| 2026-04-24 20:44 | 63.89138 | -163.46298 | 40887 ft | 456 kts | 103° |
| 2026-04-24 20:44 | 63.87873 | -163.32187 | 40903 ft | 456 kts | 104° |
| 2026-04-24 20:45 | 63.86603 | -163.18185 | 40899 ft | 456 kts | 104° |
| 2026-04-24 20:45 | 63.85323 | -163.04240 | 40899 ft | 457 kts | 104° |
| 2026-04-24 20:46 | 63.84016 | -162.90160 | 40906 ft | 457 kts | 104° |
| 2026-04-24 20:46 | 63.82704 | -162.76187 | 40897 ft | 457 kts | 104° |
| 2026-04-24 20:47 | 63.81372 | -162.62157 | 40892 ft | 458 kts | 104° |
| 2026-04-24 20:47 | 63.80029 | -162.48169 | 40896 ft | 458 kts | 104° |
| 2026-04-24 20:48 | 63.78670 | -162.34164 | 40897 ft | 459 kts | 105° |
| 2026-04-24 20:48 | 63.77289 | -162.20093 | 40899 ft | 460 kts | 105° |
| 2026-04-24 20:49 | 63.75903 | -162.06123 | 40904 ft | 460 kts | 105° |
| 2026-04-24 20:49 | 63.74491 | -161.92046 | 40904 ft | 461 kts | 105° |
| 2026-04-24 20:50 | 63.73065 | -161.77969 | 40901 ft | 462 kts | 105° |
| 2026-04-24 20:50 | 63.71633 | -161.63994 | 40914 ft | 463 kts | 105° |
| 2026-04-24 20:51 | 63.70174 | -161.49899 | 40922 ft | 464 kts | 105° |
| 2026-04-24 20:51 | 63.68699 | -161.35794 | 40922 ft | 465 kts | 105° |
| 2026-04-24 20:52 | 63.67208 | -161.21687 | 40925 ft | 466 kts | 106° |
| 2026-04-24 20:52 | 63.65712 | -161.07655 | 40919 ft | 455 kts | 106° |
| 2026-04-24 20:53 | 63.64249 | -160.94081 | 40916 ft | 446 kts | 106° |
| 2026-04-24 20:53 | 63.62785 | -160.80646 | 40902 ft | 444 kts | 106° |
| 2026-04-24 20:54 | 63.61312 | -160.67250 | 40880 ft | 444 kts | 106° |
| 2026-04-24 20:54 | 63.59830 | -160.53899 | 40878 ft | 444 kts | 106° |
| 2026-04-24 20:55 | 63.58324 | -160.40468 | 40883 ft | 444 kts | 107° |
| 2026-04-24 20:55 | 63.56811 | -160.27089 | 40901 ft | 444 kts | 107° |
| 2026-04-24 20:56 | 63.55290 | -160.13763 | 40895 ft | 444 kts | 107° |
| 2026-04-24 20:56 | 63.53751 | -160.00401 | 40877 ft | 444 kts | 107° |
| 2026-04-24 20:57 | 63.52211 | -159.87149 | 40890 ft | 443 kts | 107° |
| 2026-04-24 20:57 | 63.50648 | -159.73822 | 40913 ft | 444 kts | 108° |
| 2026-04-24 20:58 | 63.49080 | -159.60579 | 40934 ft | 444 kts | 108° |
| 2026-04-24 20:58 | 63.47494 | -159.47293 | 40950 ft | 444 kts | 107° |
| 2026-04-24 20:59 | 63.45892 | -159.33990 | 40949 ft | 445 kts | 108° |
| 2026-04-24 20:59 | 63.44284 | -159.20761 | 40944 ft | 444 kts | 109° |
| 2026-04-24 21:00 | 63.42660 | -159.07506 | 40948 ft | 444 kts | 109° |
| 2026-04-24 21:00 | 63.41022 | -158.94257 | 40938 ft | 443 kts | 109° |
| 2026-04-24 21:01 | 63.39379 | -158.81081 | 40944 ft | 443 kts | 109° |
| 2026-04-24 21:01 | 63.37725 | -158.67934 | 40950 ft | 444 kts | 109° |
| 2026-04-24 21:02 | 63.36058 | -158.54790 | 40955 ft | 444 kts | 109° |
| 2026-04-24 21:02 | 63.34378 | -158.41653 | 40958 ft | 444 kts | 109° |
| 2026-04-24 21:03 | 63.32673 | -158.28430 | 40966 ft | 444 kts | 110° |
| 2026-04-24 21:03 | 63.30969 | -158.15321 | 40964 ft | 444 kts | 110° |
| 2026-04-24 21:04 | 63.29253 | -158.02232 | 40969 ft | 444 kts | 110° |
| 2026-04-24 21:04 | 63.27525 | -157.89160 | 40970 ft | 444 kts | 110° |
| 2026-04-24 21:05 | 63.25779 | -157.76060 | 40970 ft | 444 kts | 110° |
| 2026-04-24 21:05 | 63.24024 | -157.62994 | 40967 ft | 444 kts | 110° |
| 2026-04-24 21:06 | 63.22262 | -157.49980 | 40965 ft | 444 kts | 110° |
| 2026-04-24 21:06 | 63.20482 | -157.36943 | 40963 ft | 444 kts | 110° |
| 2026-04-24 21:07 | 63.18684 | -157.23871 | 40966 ft | 444 kts | 111° |
| 2026-04-24 21:07 | 63.16877 | -157.10835 | 40956 ft | 444 kts | 111° |
| 2026-04-24 21:08 | 63.15064 | -156.97865 | 40945 ft | 444 kts | 111° |
| 2026-04-24 21:08 | 63.13248 | -156.84967 | 40953 ft | 443 kts | 111° |
| 2026-04-24 21:09 | 63.11407 | -156.71992 | 40960 ft | 444 kts | 110° |
| 2026-04-24 21:09 | 63.09561 | -156.59088 | 40956 ft | 445 kts | 111° |
| 2026-04-24 21:10 | 63.07692 | -156.46115 | 40949 ft | 446 kts | 110° |
| 2026-04-24 21:10 | 63.05808 | -156.33141 | 40949 ft | 446 kts | 112° |
| 2026-04-24 21:11 | 63.03912 | -156.20175 | 40952 ft | 446 kts | 111° |
| 2026-04-24 21:11 | 63.02006 | -156.07243 | 40983 ft | 445 kts | 112° |
| 2026-04-24 21:12 | 63.00415 | -155.96523 | 41004 ft | 446 kts | 112° |
| 2026-04-24 21:12 | 62.98157 | -155.81419 | 41006 ft | 447 kts | 111° |
| 2026-04-24 21:13 | 62.96217 | -155.68547 | 41005 ft | 448 kts | 111° |
| 2026-04-24 21:13 | 62.93727 | -155.56160 | 41004 ft | 442 kts | 124° |
| 2026-04-24 21:14 | 62.90538 | -155.44766 | 41002 ft | 441 kts | 124° |
| 2026-04-24 21:14 | 62.87334 | -155.33363 | 41009 ft | 442 kts | 125° |
| 2026-04-24 21:15 | 62.84112 | -155.21950 | 41009 ft | 441 kts | 125° |
| 2026-04-24 21:15 | 62.80899 | -155.10620 | 41008 ft | 441 kts | 125° |
| 2026-04-24 21:16 | 62.77674 | -154.99306 | 41007 ft | 441 kts | 125° |
| 2026-04-24 21:16 | 62.74446 | -154.88037 | 41008 ft | 441 kts | 125° |
| 2026-04-24 21:17 | 62.71197 | -154.76749 | 40998 ft | 441 kts | 126° |
| 2026-04-24 21:17 | 62.68494 | -154.67398 | 40995 ft | 441 kts | 126° |
| 2026-04-24 21:18 | 62.64677 | -154.54266 | 40316 ft | 452 kts | 126° |
| 2026-04-24 21:18 | 62.62998 | -154.48512 | 39698 ft | 451 kts | 126° |
| 2026-04-24 21:18 | 62.61324 | -154.42786 | 39075 ft | 450 kts | 126° |
| 2026-04-24 21:19 | 62.59658 | -154.37102 | 38457 ft | 448 kts | 127° |
| 2026-04-24 21:19 | 62.57989 | -154.31421 | 37879 ft | 448 kts | 128° |
| 2026-04-24 21:19 | 62.56339 | -154.25821 | 37255 ft | 448 kts | 128° |
| 2026-04-24 21:19 | 62.54659 | -154.20132 | 36622 ft | 447 kts | 128° |
| 2026-04-24 21:20 | 62.51352 | -154.08971 | 35387 ft | 443 kts | 129° |
| 2026-04-24 21:20 | 62.49686 | -154.03368 | 34758 ft | 441 kts | 129° |
| 2026-04-24 21:20 | 62.48060 | -153.97911 | 34153 ft | 437 kts | 130° |
| 2026-04-24 21:21 | 62.46422 | -153.92427 | 33511 ft | 434 kts | 130° |
| 2026-04-24 21:21 | 62.44794 | -153.86987 | 32874 ft | 429 kts | 131° |
| 2026-04-24 21:21 | 62.43210 | -153.81709 | 32185 ft | 423 kts | 131° |
| 2026-04-24 21:21 | 62.41632 | -153.76454 | 31557 ft | 416 kts | 133° |
| 2026-04-24 21:22 | 62.40064 | -153.71249 | 30919 ft | 410 kts | 133° |
| 2026-04-24 21:22 | 62.38548 | -153.66231 | 30291 ft | 404 kts | 133° |
| 2026-04-24 21:22 | 62.37036 | -153.61238 | 29664 ft | 398 kts | 133° |
| 2026-04-24 21:22 | 62.36030 | -153.57921 | 29249 ft | 394 kts | 132° |
| 2026-04-24 21:23 | 62.34051 | -153.51416 | 28411 ft | 388 kts | 132° |
| 2026-04-24 21:23 | 62.32588 | -153.46619 | 27781 ft | 383 kts | 132° |
| 2026-04-24 21:23 | 62.31132 | -153.41858 | 27154 ft | 380 kts | 131° |
| 2026-04-24 21:23 | 62.29700 | -153.37186 | 26517 ft | 376 kts | 131° |
| 2026-04-24 21:24 | 62.28281 | -153.32565 | 25903 ft | 372 kts | 131° |
| 2026-04-24 21:24 | 62.26858 | -153.27940 | 25280 ft | 368 kts | 131° |
| 2026-04-24 21:24 | 62.25475 | -153.23450 | 24906 ft | 359 kts | 131° |
| 2026-04-24 21:24 | 62.24123 | -153.19063 | 24567 ft | 350 kts | 131° |
| 2026-04-24 21:25 | 62.22774 | -153.14711 | 24234 ft | 351 kts | 130° |
| 2026-04-24 21:25 | 62.21419 | -153.10353 | 23908 ft | 353 kts | 130° |
| 2026-04-24 21:25 | 62.20055 | -153.05972 | 23568 ft | 354 kts | 131° |
| 2026-04-24 21:25 | 62.18707 | -153.01643 | 23256 ft | 353 kts | 130° |
| 2026-04-24 21:26 | 62.17354 | -152.97307 | 22932 ft | 352 kts | 130° |
| 2026-04-24 21:26 | 62.16003 | -152.92982 | 22614 ft | 350 kts | 130° |
| 2026-04-24 21:26 | 62.14710 | -152.88582 | 22312 ft | 352 kts | 123° |
| 2026-04-24 21:26 | 62.13755 | -152.83742 | 21992 ft | 355 kts | 117° |
| 2026-04-24 21:27 | 62.12862 | -152.78832 | 21670 ft | 354 kts | 117° |
| 2026-04-24 21:27 | 62.11980 | -152.74033 | 21369 ft | 353 kts | 117° |
| 2026-04-24 21:27 | 62.11080 | -152.69151 | 21059 ft | 351 kts | 117° |
| 2026-04-24 21:27 | 62.10194 | -152.64357 | 20751 ft | 350 kts | 117° |
| 2026-04-24 21:28 | 62.09302 | -152.59551 | 20434 ft | 349 kts | 116° |
| 2026-04-24 21:28 | 62.08411 | -152.54755 | 20119 ft | 348 kts | 116° |
| 2026-04-24 21:28 | 62.07515 | -152.49948 | 19811 ft | 346 kts | 116° |
| 2026-04-24 21:28 | 62.06626 | -152.45197 | 19491 ft | 345 kts | 116° |
| 2026-04-24 21:29 | 62.05739 | -152.40463 | 19166 ft | 343 kts | 116° |
| 2026-04-24 21:29 | 62.04854 | -152.35756 | 18825 ft | 342 kts | 116° |
| 2026-04-24 21:29 | 62.03966 | -152.31047 | 18500 ft | 341 kts | 116° |
| 2026-04-24 21:29 | 62.03091 | -152.26411 | 18176 ft | 340 kts | 116° |
| 2026-04-24 21:30 | 62.02217 | -152.21796 | 17868 ft | 337 kts | 117° |
| 2026-04-24 21:30 | 62.01340 | -152.17177 | 17551 ft | 336 kts | 117° |
| 2026-04-24 21:30 | 62.00464 | -152.12572 | 17232 ft | 334 kts | 117° |
| 2026-04-24 21:30 | 61.99594 | -152.08011 | 16938 ft | 333 kts | 117° |
| 2026-04-24 21:31 | 61.98736 | -152.03523 | 16615 ft | 330 kts | 117° |
| 2026-04-24 21:31 | 61.97873 | -151.99019 | 16295 ft | 328 kts | 117° |
| 2026-04-24 21:31 | 61.97010 | -151.94524 | 15984 ft | 327 kts | 117° |
| 2026-04-24 21:31 | 61.96159 | -151.90106 | 15662 ft | 325 kts | 117° |
| 2026-04-24 21:32 | 61.95298 | -151.85640 | 15320 ft | 323 kts | 117° |
| 2026-04-24 21:32 | 61.94453 | -151.81273 | 15002 ft | 321 kts | 117° |
| 2026-04-24 21:32 | 61.93612 | -151.76930 | 14668 ft | 319 kts | 117° |
| 2026-04-24 21:32 | 61.92776 | -151.72629 | 14351 ft | 318 kts | 117° |
| 2026-04-24 21:33 | 61.91927 | -151.68266 | 14036 ft | 317 kts | 117° |
| 2026-04-24 21:33 | 61.91364 | -151.65381 | 13822 ft | 316 kts | 117° |
| 2026-04-24 21:33 | 61.90247 | -151.59666 | 13383 ft | 313 kts | 117° |
| 2026-04-24 21:33 | 61.89420 | -151.55447 | 13063 ft | 312 kts | 117° |
| 2026-04-24 21:34 | 61.88594 | -151.51237 | 12748 ft | 310 kts | 116° |
| 2026-04-24 21:34 | 61.87762 | -151.47006 | 12418 ft | 308 kts | 117° |
| 2026-04-24 21:34 | 61.86940 | -151.42839 | 12097 ft | 306 kts | 117° |
| 2026-04-24 21:34 | 61.86125 | -151.38713 | 11760 ft | 304 kts | 117° |
| 2026-04-24 21:35 | 61.85317 | -151.34631 | 11434 ft | 302 kts | 118° |
| 2026-04-24 21:35 | 61.84495 | -151.30493 | 11102 ft | 300 kts | 117° |
| 2026-04-24 21:35 | 61.83697 | -151.26477 | 10773 ft | 298 kts | 118° |
| 2026-04-24 21:35 | 61.82888 | -151.22411 | 10441 ft | 297 kts | 118° |
| 2026-04-24 21:36 | 61.82097 | -151.18451 | 10125 ft | 296 kts | 117° |
| 2026-04-24 21:36 | 61.81290 | -151.14414 | 9807 ft | 295 kts | 117° |
| 2026-04-24 21:36 | 61.80498 | -151.10466 | 9492 ft | 294 kts | 117° |
| 2026-04-24 21:36 | 61.79696 | -151.06473 | 9174 ft | 292 kts | 117° |
| 2026-04-24 21:37 | 61.78905 | -151.02544 | 8867 ft | 291 kts | 117° |
| 2026-04-24 21:37 | 61.77848 | -150.99005 | 8556 ft | 284 kts | 137° |
| 2026-04-24 21:37 | 61.76262 | -150.96649 | 8236 ft | 281 kts | 156° |
| 2026-04-24 21:37 | 61.74399 | -150.95566 | 7916 ft | 281 kts | 168° |
| 2026-04-24 21:38 | 61.72472 | -150.94832 | 7571 ft | 281 kts | 168° |
| 2026-04-24 21:38 | 61.70560 | -150.94106 | 7245 ft | 282 kts | 168° |
| 2026-04-24 21:38 | 61.68646 | -150.93405 | 6969 ft | 280 kts | 168° |
| 2026-04-24 21:38 | 61.66714 | -150.92712 | 6945 ft | 282 kts | 169° |
| 2026-04-24 21:39 | 61.64791 | -150.92020 | 6951 ft | 283 kts | 168° |
| 2026-04-24 21:39 | 61.62846 | -150.91432 | 6945 ft | 283 kts | 171° |
| 2026-04-24 21:39 | 61.60887 | -150.90956 | 6929 ft | 283 kts | 171° |
| 2026-04-24 21:39 | 61.58954 | -150.90520 | 6921 ft | 282 kts | 171° |
| 2026-04-24 21:40 | 61.57062 | -150.90080 | 6923 ft | 264 kts | 172° |
| 2026-04-24 21:40 | 61.55304 | -150.89710 | 6926 ft | 244 kts | 172° |
| 2026-04-24 21:40 | 61.53673 | -150.89372 | 6918 ft | 227 kts | 172° |
| 2026-04-24 21:40 | 61.52141 | -150.89050 | 6903 ft | 222 kts | 172° |
| 2026-04-24 21:41 | 61.50585 | -150.88716 | 6888 ft | 223 kts | 172° |
| 2026-04-24 21:41 | 61.49061 | -150.88382 | 6888 ft | 223 kts | 172° |
| 2026-04-24 21:41 | 61.47505 | -150.88045 | 6889 ft | 224 kts | 172° |
| 2026-04-24 21:41 | 61.45977 | -150.87720 | 6893 ft | 223 kts | 172° |
| 2026-04-24 21:42 | 61.44419 | -150.87395 | 6898 ft | 224 kts | 172° |
| 2026-04-24 21:42 | 61.42886 | -150.87073 | 6895 ft | 224 kts | 172° |
| 2026-04-24 21:42 | 61.41340 | -150.86760 | 6902 ft | 224 kts | 171° |
| 2026-04-24 21:42 | 61.39777 | -150.86464 | 6908 ft | 223 kts | 171° |
| 2026-04-24 21:43 | 61.38246 | -150.86173 | 6919 ft | 223 kts | 172° |
| 2026-04-24 21:43 | 61.36694 | -150.85875 | 6922 ft | 224 kts | 172° |
| 2026-04-24 21:43 | 61.35157 | -150.85567 | 6917 ft | 224 kts | 172° |
| 2026-04-24 21:43 | 61.33614 | -150.85260 | 6925 ft | 221 kts | 172° |
| 2026-04-24 21:44 | 61.32162 | -150.84976 | 6967 ft | 198 kts | 172° |
| 2026-04-24 21:44 | 61.30854 | -150.84757 | 6942 ft | 176 kts | 172° |
| 2026-04-24 21:44 | 61.29686 | -150.84619 | 6829 ft | 163 kts | 173° |
| 2026-04-24 21:44 | 61.28545 | -150.84482 | 6319 ft | 173 kts | 171° |
| 2026-04-24 21:45 | 61.27316 | -150.84267 | 5742 ft | 182 kts | 167° |
| 2026-04-24 21:45 | 61.26228 | -150.83023 | 5169 ft | 183 kts | 131° |
| 2026-04-24 21:45 | 61.25394 | -150.81024 | 4685 ft | 185 kts | 128° |
| 2026-04-24 21:45 | 61.24585 | -150.79115 | 4334 ft | 172 kts | 129° |
| 2026-04-24 21:46 | 61.23810 | -150.77306 | 3910 ft | 166 kts | 128° |
| 2026-04-24 21:46 | 61.23057 | -150.75546 | 3463 ft | 163 kts | 128° |
| 2026-04-24 21:46 | 61.22313 | -150.73814 | 3015 ft | 161 kts | 128° |
| 2026-04-24 21:46 | 61.21576 | -150.72101 | 2561 ft | 160 kts | 128° |
| 2026-04-24 21:47 | 61.20850 | -150.70418 | 2123 ft | 158 kts | 128° |
| 2026-04-24 21:47 | 61.20373 | -150.69318 | 1974 ft | 148 kts | 127° |
| 2026-04-24 21:47 | 61.19451 | -150.67191 | 1939 ft | 149 kts | 127° |
| 2026-04-24 21:47 | 61.18760 | -150.65599 | 1974 ft | 150 kts | 128° |
| 2026-04-24 21:48 | 61.18067 | -150.64006 | 1968 ft | 144 kts | 128° |
| 2026-04-24 21:48 | 61.17421 | -150.62532 | 1978 ft | 134 kts | 127° |
| 2026-04-24 21:48 | 61.16809 | -150.61110 | 1955 ft | 132 kts | 124° |
| 2026-04-24 21:48 | 61.16555 | -150.59376 | 1928 ft | 127 kts | 87° |
| 2026-04-24 21:49 | 61.16587 | -150.57570 | 2012 ft | 126 kts | 88° |
| 2026-04-24 21:49 | 61.16608 | -150.55749 | 1980 ft | 126 kts | 88° |
| 2026-04-24 21:49 | 61.16625 | -150.53917 | 1968 ft | 126 kts | 89° |
| 2026-04-24 21:49 | 61.16642 | -150.52119 | 1959 ft | 125 kts | 89° |
| 2026-04-24 21:50 | 61.16658 | -150.50304 | 1960 ft | 125 kts | 89° |
| 2026-04-24 21:50 | 61.16672 | -150.48518 | 1964 ft | 125 kts | 89° |
| 2026-04-24 21:50 | 61.16686 | -150.46721 | 1966 ft | 126 kts | 89° |
| 2026-04-24 21:50 | 61.16698 | -150.44897 | 1962 ft | 127 kts | 88° |
| 2026-04-24 21:51 | 61.16710 | -150.43048 | 1782 ft | 129 kts | 88° |
| 2026-04-24 21:51 | 61.16722 | -150.41226 | 1570 ft | 127 kts | 88° |
| 2026-04-24 21:51 | 61.16730 | -150.39381 | 1577 ft | 129 kts | 89° |
| 2026-04-24 21:51 | 61.16721 | -150.37508 | 1574 ft | 129 kts | 89° |
| 2026-04-24 21:52 | 61.16718 | -150.35646 | 1571 ft | 129 kts | 89° |
| 2026-04-24 21:52 | 61.16724 | -150.33795 | 1570 ft | 129 kts | 89° |
| 2026-04-24 21:52 | 61.16732 | -150.31940 | 1542 ft | 128 kts | 89° |
| 2026-04-24 21:52 | 61.16740 | -150.30100 | 1551 ft | 128 kts | 90° |
| 2026-04-24 21:53 | 61.16747 | -150.28242 | 1564 ft | 128 kts | 89° |
| 2026-04-24 21:53 | 61.16754 | -150.26407 | 1571 ft | 128 kts | 89° |
| 2026-04-24 21:53 | 61.16761 | -150.24562 | 1570 ft | 128 kts | 89° |
| 2026-04-24 21:53 | 61.16768 | -150.22722 | 1576 ft | 128 kts | 89° |
| 2026-04-24 21:54 | 61.16774 | -150.20872 | 1573 ft | 129 kts | 90° |
| 2026-04-24 21:54 | 61.16779 | -150.19012 | 1545 ft | 129 kts | 90° |
| 2026-04-24 21:54 | 61.16783 | -150.17136 | 1362 ft | 129 kts | 90° |
| 2026-04-24 21:54 | 61.16788 | -150.15276 | 1245 ft | 128 kts | 89° |
| 2026-04-24 21:55 | 61.16792 | -150.13457 | 1008 ft | 125 kts | 89° |
| 2026-04-24 21:55 | 61.16796 | -150.11682 | 838 ft | 124 kts | 89° |
| 2026-04-24 21:55 | 61.16799 | -150.09872 | 657 ft | 126 kts | 89° |
| 2026-04-24 21:55 | 61.16803 | -150.08073 | 500 ft | 127 kts | 89° |
| 2026-04-24 21:56 | 61.16812 | -150.06230 | 326 ft | 128 kts | 85° |
| 2026-04-24 21:56 | 61.16781 | -150.04431 | 247 ft | 122 kts | 89° |
| 2026-04-24 21:56 | 61.16777 | -150.02724 | 160 ft | 113 kts | 87° |
| 2026-04-24 21:56 | 61.16783 | -150.01439 | 160 ft | 60 kts | 90° |
| 2026-04-24 21:57 | 61.16786 | -150.00708 | 159 ft | 48 kts | 90° |
| 2026-04-24 21:57 | 61.16785 | -150.00018 | 159 ft | 47 kts | 90° |
| 2026-04-24 21:57 | 61.16785 | -149.99353 | 159 ft | 45 kts | 90° |
| 2026-04-24 21:57 | 61.16787 | -149.98810 | 159 ft | 23 kts | 90° |
| 2026-04-24 21:58 | 61.16737 | -149.98618 | 159 ft | 14 kts | 148° |
| 2026-04-24 21:58 | 61.16637 | -149.98532 | 159 ft | 17 kts | 160° |
| 2026-04-24 21:58 | 61.16548 | -149.98489 | 159 ft | 8 kts | 229° |
| 2026-04-24 21:58 | 61.16531 | -149.98618 | 159 ft | 11 kts | 255° |
| 2026-04-24 21:59 | 61.16515 | -149.98647 | 159 ft | 0 kts | 97° |
| 2026-04-24 21:59 | 61.16516 | -149.98636 | 159 ft | 0 kts | 73° |